Time;durP1;ratioP1;P1;durP2;ratioP2;P2;SDS_P1;SDS_P2;PMS_P1;PMS_P2;Temp;Humidity;BMP_temperature;BMP_pressure;BME280_temperature;BME280_humidity;BME280_pressure;Samples;Min_cycle;Max_cycle;Signal;HPM_P1;HPM_P2
2022/03/28 00:02:00;;;;;;;14.48;12.85;;;;;;;;;;5114268;28;20012;-63
2022/03/28 00:04:25;;;;;;;13.70;12.35;;;;;;;;;;5114548;28;20468;-62
2022/03/28 00:06:50;;;;;;;13.65;12.30;;;;;;;;;;5108000;28;20091;-63
2022/03/28 00:09:16;;;;;;;14.52;13.02;;;;;;;;;;5106778;28;20114;-63
2022/03/28 00:11:41;;;;;;;14.00;12.68;;;;;;;;;;5114299;28;20551;-63
2022/03/28 00:14:07;;;;;;;14.27;12.85;;;;;;;;;;5110028;28;20028;-63
2022/03/28 00:16:32;;;;;;;13.63;12.32;;;;;;;;;;5113485;28;20022;-62
2022/03/28 00:18:57;;;;;;;14.93;12.48;;;;;;;;;;5102715;28;20031;-63
2022/03/28 00:21:22;;;;;;;15.10;13.60;;;;;;;;;;5093832;28;20020;-62
2022/03/28 00:23:48;;;;;;;13.18;11.88;;;;;;;;;;5094474;28;20020;-63
2022/03/28 00:26:13;;;;;;;13.50;12.25;;;;;;;;;;5110849;28;20055;-63
2022/03/28 00:28:38;;;;;;;13.10;11.85;;;;;;;;;;5111667;28;20016;-63
2022/03/28 00:31:04;;;;;;;13.48;12.18;;;;;;;;;;5113633;28;20045;-62
2022/03/28 00:33:29;;;;;;;14.10;12.70;;;;;;;;;;5113136;28;20397;-62
2022/03/28 00:35:54;;;;;;;14.43;12.48;;;;;;;;;;5106162;28;20012;-63
2022/03/28 00:38:20;;;;;;;13.57;12.27;;;;;;;;;;5098024;28;20020;-62
2022/03/28 00:40:45;;;;;;;13.55;12.18;;;;;;;;;;5095393;28;20065;-62
2022/03/28 00:43:10;;;;;;;13.93;11.98;;;;;;;;;;5093837;28;20036;-62
2022/03/28 00:45:37;;;;;;;13.88;12.43;;;;;;;;;;5094698;28;20020;-63
2022/03/28 00:48:03;;;;;;;13.10;11.73;;;;;;;;;;5094440;28;20111;-62
2022/03/28 00:50:29;;;;;;;12.70;11.40;;;;;;;;;;5100070;28;20060;-65
2022/03/28 00:52:55;;;;;;;12.43;11.07;;;;;;;;;;5092692;28;20400;-62
2022/03/28 00:55:20;;;;;;;12.90;11.57;;;;;;;;;;5092965;28;20035;-62
2022/03/28 00:57:46;;;;;;;13.95;11.95;;;;;;;;;;5110718;28;20082;-62
2022/03/28 01:00:11;;;;;;;12.77;11.48;;;;;;;;;;5098349;28;20024;-62
2022/03/28 01:02:37;;;;;;;12.63;11.40;;;;;;;;;;5100698;28;20058;-62
2022/03/28 01:05:02;;;;;;;12.40;11.20;;;;;;;;;;5105215;27;20019;-62
2022/03/28 01:07:28;;;;;;;12.25;11.07;;;;;;;;;;5099135;28;20020;-63
2022/03/28 01:09:55;;;;;;;13.13;11.82;;;;;;;;;;5111081;28;20027;-63
2022/03/28 01:12:22;;;;;;;12.88;11.57;;;;;;;;;;5092886;28;20101;-63
2022/03/28 01:14:47;;;;;;;13.52;12.13;;;;;;;;;;5097904;28;20046;-64
2022/03/28 01:19:56;;;;;;;13.30;12.00;;;;;;;;;;5102392;28;20173;-64
2022/03/28 01:22:22;;;;;;;13.85;12.10;;;;;;;;;;5096165;28;20054;-63
2022/03/28 01:24:47;;;;;;;14.00;12.20;;;;;;;;;;5094177;28;20028;-64
2022/03/28 01:27:14;;;;;;;13.82;12.38;;;;;;;;;;5103049;28;20384;-63
2022/03/28 01:29:41;;;;;;;13.68;11.95;;;;;;;;;;5107497;28;20115;-63
2022/03/28 01:32:07;;;;;;;13.77;12.38;;;;;;;;;;5111148;28;20114;-63
2022/03/28 01:34:33;;;;;;;14.23;12.73;;;;;;;;;;5111407;28;20030;-63
2022/03/28 01:36:58;;;;;;;13.30;11.77;;;;;;;;;;5112764;28;20023;-63
2022/03/28 01:39:23;;;;;;;14.57;12.75;;;;;;;;;;5111287;28;20032;-63
2022/03/28 01:41:48;;;;;;;14.40;12.90;;;;;;;;;;5094231;28;20050;-63
2022/03/28 01:44:14;;;;;;;13.77;12.38;;;;;;;;;;5103804;28;20036;-63
2022/03/28 01:46:40;;;;;;;13.98;12.57;;;;;;;;;;5111665;28;20028;-63
2022/03/28 01:49:05;;;;;;;13.82;12.38;;;;;;;;;;5098527;28;20063;-64
2022/03/28 01:51:31;;;;;;;14.10;12.70;;;;;;;;;;5091961;28;20443;-63
2022/03/28 01:53:58;;;;;;;13.93;12.43;;;;;;;;;;5103115;28;20032;-63
2022/03/28 01:56:24;;;;;;;14.55;13.15;;;;;;;;;;5094503;28;20266;-63
2022/03/28 01:58:49;;;;;;;15.32;13.73;;;;;;;;;;5106448;28;20381;-64
2022/03/28 02:01:14;;;;;;;13.57;12.27;;;;;;;;;;5102476;28;20562;-63
2022/03/28 02:03:39;;;;;;;14.15;12.65;;;;;;;;;;5100016;28;20395;-63
2022/03/28 02:06:05;;;;;;;13.88;12.43;;;;;;;;;;5106212;28;20031;-63
2022/03/28 02:08:32;;;;;;;15.48;13.80;;;;;;;;;;5098863;28;20068;-63
2022/03/28 02:10:57;;;;;;;14.90;13.45;;;;;;;;;;5111142;28;20027;-63
2022/03/28 02:13:22;;;;;;;16.02;12.23;;;;;;;;;;5110879;28;20387;-61
2022/03/28 02:15:47;;;;;;;13.57;12.18;;;;;;;;;;5112130;28;20106;-63
2022/03/28 02:18:13;;;;;;;13.48;12.18;;;;;;;;;;5110111;28;20034;-61
2022/03/28 02:20:38;;;;;;;13.98;12.07;;;;;;;;;;5101689;28;20018;-61
2022/03/28 02:23:03;;;;;;;14.18;12.38;;;;;;;;;;5098252;28;20492;-64
2022/03/28 02:25:28;;;;;;;13.55;11.77;;;;;;;;;;5097019;28;20356;-61
2022/03/28 02:27:54;;;;;;;13.30;11.90;;;;;;;;;;5107409;28;20047;-62
2022/03/28 02:30:19;;;;;;;14.13;12.48;;;;;;;;;;5111830;28;20027;-62
2022/03/28 02:32:44;;;;;;;13.77;12.38;;;;;;;;;;5110370;28;20067;-62
2022/03/28 02:35:10;;;;;;;13.23;11.82;;;;;;;;;;5110346;28;20047;-62
2022/03/28 02:37:35;;;;;;;13.82;12.25;;;;;;;;;;5100444;28;20024;-62
2022/03/28 02:40:00;;;;;;;12.95;11.65;;;;;;;;;;5110194;28;20406;-62
2022/03/28 02:42:26;;;;;;;13.25;11.95;;;;;;;;;;5103369;28;20110;-62
2022/03/28 02:44:51;;;;;;;12.38;11.07;;;;;;;;;;5103686;28;20030;-63
2022/03/28 02:47:20;;;;;;;13.10;11.80;;;;;;;;;;5102879;28;20332;-63
2022/03/28 02:49:45;;;;;;;14.45;12.38;;;;;;;;;;5102780;28;20026;-63
2022/03/28 02:52:10;;;;;;;15.35;13.20;;;;;;;;;;5105284;28;20119;-63
2022/03/28 02:54:36;;;;;;;13.13;11.73;;;;;;;;;;5099139;28;20051;-63
2022/03/28 02:57:01;;;;;;;13.00;11.80;;;;;;;;;;5085773;28;20480;-63
2022/03/28 02:59:26;;;;;;;13.65;12.25;;;;;;;;;;5100048;28;20031;-63
2022/03/28 03:01:51;;;;;;;13.93;12.52;;;;;;;;;;5104402;28;20021;-63
2022/03/28 03:04:16;;;;;;;14.07;12.45;;;;;;;;;;5098596;28;20043;-63
2022/03/28 03:06:42;;;;;;;17.95;13.90;;;;;;;;;;5114115;28;20032;-63
2022/03/28 03:09:07;;;;;;;14.32;12.82;;;;;;;;;;5109737;28;20036;-63
2022/03/28 03:11:32;;;;;;;14.77;13.20;;;;;;;;;;5095477;28;20051;-63
2022/03/28 03:13:57;;;;;;;15.57;13.23;;;;;;;;;;5104503;28;20487;-62
2022/03/28 03:16:23;;;;;;;16.25;12.80;;;;;;;;;;5104644;28;20067;-63
2022/03/28 03:18:48;;;;;;;13.60;12.18;;;;;;;;;;5099661;28;20036;-63
2022/03/28 03:21:14;;;;;;;15.25;13.43;;;;;;;;;;5111687;28;20115;-63
2022/03/28 03:23:39;;;;;;;15.35;13.75;;;;;;;;;;5112887;28;20532;-63
2022/03/28 03:26:04;;;;;;;15.77;13.27;;;;;;;;;;5101979;28;20027;-63
2022/03/28 03:28:29;;;;;;;14.75;13.00;;;;;;;;;;5104605;28;20071;-63
2022/03/28 03:30:55;;;;;;;13.75;12.07;;;;;;;;;;5108045;28;20078;-63
2022/03/28 03:33:20;;;;;;;14.88;13.30;;;;;;;;;;5106317;28;20403;-63
2022/03/28 03:35:46;;;;;;;13.52;12.13;;;;;;;;;;5103539;28;20019;-63
2022/03/28 03:38:11;;;;;;;16.02;12.90;;;;;;;;;;5101567;28;20067;-62
2022/03/28 03:40:36;;;;;;;16.10;13.13;;;;;;;;;;5109231;28;20349;-62
2022/03/28 03:43:02;;;;;;;13.88;12.48;;;;;;;;;;5102010;28;20016;-63
2022/03/28 03:45:27;;;;;;;14.60;13.10;;;;;;;;;;5109916;28;20135;-63
2022/03/28 03:47:52;;;;;;;14.60;12.82;;;;;;;;;;5113194;28;20031;-62
2022/03/28 03:50:17;;;;;;;14.25;12.75;;;;;;;;;;5113586;28;20023;-62
2022/03/28 03:52:43;;;;;;;14.40;12.93;;;;;;;;;;5114302;28;20373;-62
2022/03/28 03:55:08;;;;;;;15.73;13.23;;;;;;;;;;5110414;28;20415;-62
2022/03/28 03:57:34;;;;;;;14.38;12.88;;;;;;;;;;5107294;28;20044;-62
2022/03/28 03:59:59;;;;;;;14.73;12.85;;;;;;;;;;5108194;28;20035;-62
2022/03/28 04:02:24;;;;;;;15.30;12.95;;;;;;;;;;5107123;28;20024;-62
2022/03/28 04:04:49;;;;;;;16.13;13.85;;;;;;;;;;5104997;28;20027;-62
2022/03/28 04:07:15;;;;;;;15.10;13.15;;;;;;;;;;5111360;28;20059;-62
2022/03/28 04:09:41;;;;;;;15.48;13.40;;;;;;;;;;5112474;28;20036;-63
2022/03/28 04:12:07;;;;;;;16.25;14.00;;;;;;;;;;5108735;28;20028;-62
2022/03/28 04:14:32;;;;;;;16.20;14.18;;;;;;;;;;5111218;28;20047;-62
2022/03/28 04:16:57;;;;;;;16.33;14.63;;;;;;;;;;5109881;28;20472;-62
2022/03/28 04:19:23;;;;;;;15.13;13.63;;;;;;;;;;5112129;28;20118;-62
2022/03/28 04:21:48;;;;;;;16.33;14.52;;;;;;;;;;5102476;28;20464;-62
2022/03/28 04:24:13;;;;;;;14.95;13.35;;;;;;;;;;5098642;28;20028;-63
2022/03/28 04:26:39;;;;;;;14.88;13.23;;;;;;;;;;5097777;28;20060;-62
2022/03/28 04:29:04;;;;;;;15.50;13.90;;;;;;;;;;5109588;28;20503;-62
2022/03/28 04:31:29;;;;;;;15.65;13.68;;;;;;;;;;5107000;28;20031;-63
2022/03/28 04:33:54;;;;;;;17.77;14.55;;;;;;;;;;5095467;28;20063;-62
2022/03/28 04:36:21;;;;;;;15.90;14.15;;;;;;;;;;5100554;28;20066;-65
2022/03/28 04:38:46;;;;;;;16.27;14.43;;;;;;;;;;5107884;28;20027;-63
2022/03/28 04:41:12;;;;;;;16.73;14.60;;;;;;;;;;5112306;28;20034;-63
2022/03/28 04:43:37;;;;;;;16.10;14.43;;;;;;;;;;5107793;28;20040;-64
2022/03/28 04:46:02;;;;;;;16.40;14.57;;;;;;;;;;5111887;28;20031;-64
2022/03/28 04:48:27;;;;;;;17.58;15.48;;;;;;;;;;5093646;28;20111;-63
2022/03/28 04:50:53;;;;;;;16.20;14.50;;;;;;;;;;5111983;28;20110;-62
2022/03/28 04:53:18;;;;;;;16.50;14.35;;;;;;;;;;5098067;28;20549;-62
2022/03/28 04:55:43;;;;;;;17.02;14.13;;;;;;;;;;5108374;28;20552;-63
2022/03/28 04:58:08;;;;;;;17.30;15.23;;;;;;;;;;5111875;28;20089;-63
2022/03/28 05:00:33;;;;;;;17.60;15.68;;;;;;;;;;5108272;28;20020;-63
2022/03/28 05:02:59;;;;;;;18.80;16.17;;;;;;;;;;5110035;28;20084;-63
2022/03/28 05:05:24;;;;;;;17.80;14.73;;;;;;;;;;5108028;28;20023;-64
2022/03/28 05:07:49;;;;;;;21.30;16.40;;;;;;;;;;5104990;28;20069;-63
2022/03/28 05:10:15;;;;;;;17.17;15.32;;;;;;;;;;5110647;28;20022;-63
2022/03/28 05:12:40;;;;;;;16.77;14.93;;;;;;;;;;5112771;28;20030;-62
2022/03/28 05:15:06;;;;;;;16.77;14.98;;;;;;;;;;5112605;28;20012;-63
2022/03/28 05:17:32;;;;;;;18.05;15.30;;;;;;;;;;5108118;28;20426;-62
2022/03/28 05:19:59;;;;;;;17.60;15.73;;;;;;;;;;5101163;28;20051;-63
2022/03/28 05:22:24;;;;;;;17.10;15.27;;;;;;;;;;5102497;28;20022;-63
2022/03/28 05:24:50;;;;;;;17.98;14.63;;;;;;;;;;5098208;28;20102;-63
2022/03/28 05:27:16;;;;;;;16.65;14.60;;;;;;;;;;5102697;28;20046;-63
2022/03/28 05:29:41;;;;;;;17.33;14.60;;;;;;;;;;5103655;28;20471;-63
2022/03/28 05:32:06;;;;;;;15.57;13.85;;;;;;;;;;5102260;27;20133;-63
2022/03/28 05:34:32;;;;;;;16.58;14.68;;;;;;;;;;5104893;28;20063;-63
2022/03/28 05:37:00;;;;;;;17.60;15.20;;;;;;;;;;5109741;28;20023;-63
2022/03/28 05:39:26;;;;;;;17.05;14.70;;;;;;;;;;5103903;28;20161;-63
2022/03/28 05:41:51;;;;;;;17.48;15.43;;;;;;;;;;5111154;28;20102;-63
2022/03/28 05:44:17;;;;;;;17.50;15.48;;;;;;;;;;5109934;28;20497;-63
2022/03/28 05:46:43;;;;;;;18.73;15.45;;;;;;;;;;5102713;28;20019;-64
2022/03/28 05:49:08;;;;;;;16.90;15.20;;;;;;;;;;5103906;28;20027;-62
2022/03/28 05:51:33;;;;;;;19.50;15.40;;;;;;;;;;5095785;28;20073;-63
2022/03/28 05:53:58;;;;;;;17.10;15.25;;;;;;;;;;5097862;28;20619;-63
2022/03/28 05:56:23;;;;;;;17.02;15.23;;;;;;;;;;5100031;28;20106;-63
2022/03/28 05:58:49;;;;;;;17.70;15.73;;;;;;;;;;5108623;28;20391;-63
2022/03/28 06:01:14;;;;;;;17.92;15.75;;;;;;;;;;5102111;28;20488;-64
2022/03/28 06:03:40;;;;;;;19.02;16.05;;;;;;;;;;5096300;28;20115;-63
2022/03/28 06:06:08;;;;;;;17.02;15.10;;;;;;;;;;5106443;28;20042;-63
2022/03/28 06:08:34;;;;;;;19.58;14.80;;;;;;;;;;5109095;28;20103;-63
2022/03/28 06:10:59;;;;;;;19.75;15.55;;;;;;;;;;5105877;28;20480;-63
2022/03/28 06:13:24;;;;;;;18.90;15.23;;;;;;;;;;5102876;28;20035;-64
2022/03/28 06:15:49;;;;;;;17.45;15.25;;;;;;;;;;5092225;28;20016;-63
2022/03/28 06:18:15;;;;;;;18.92;15.88;;;;;;;;;;5090107;28;20036;-63
2022/03/28 06:20:40;;;;;;;19.25;16.58;;;;;;;;;;5095671;28;20115;-63
2022/03/28 06:23:05;;;;;;;18.52;16.40;;;;;;;;;;5104494;28;20041;-63
2022/03/28 06:25:30;;;;;;;18.52;16.08;;;;;;;;;;5109490;28;20118;-63
2022/03/28 06:27:56;;;;;;;22.10;16.40;;;;;;;;;;5108415;28;20039;-64
2022/03/28 06:30:21;;;;;;;17.83;15.40;;;;;;;;;;5110268;28;20016;-64
2022/03/28 06:32:46;;;;;;;16.80;15.02;;;;;;;;;;5096473;28;20093;-64
2022/03/28 06:35:11;;;;;;;20.45;14.95;;;;;;;;;;5098884;28;20022;-64
2022/03/28 06:37:37;;;;;;;23.38;16.17;;;;;;;;;;5103846;28;20448;-64
2022/03/28 06:40:03;;;;;;;22.27;16.08;;;;;;;;;;5095641;28;20023;-64
2022/03/28 06:42:29;;;;;;;18.35;16.40;;;;;;;;;;5097467;28;20559;-64
2022/03/28 06:44:54;;;;;;;21.60;16.52;;;;;;;;;;5112227;28;20111;-64
2022/03/28 06:47:19;;;;;;;17.88;16.00;;;;;;;;;;5113523;28;20076;-64
2022/03/28 06:49:44;;;;;;;24.02;16.80;;;;;;;;;;5114037;28;20041;-64
2022/03/28 06:52:10;;;;;;;18.17;16.33;;;;;;;;;;5111529;28;20030;-64
2022/03/28 06:54:35;;;;;;;18.40;16.40;;;;;;;;;;5104561;28;20019;-64
2022/03/28 06:57:02;;;;;;;22.13;16.25;;;;;;;;;;5101647;28;20035;-63
2022/03/28 06:59:27;;;;;;;18.73;16.17;;;;;;;;;;5084459;28;20056;-64
2022/03/28 07:01:54;;;;;;;21.13;16.13;;;;;;;;;;5110157;28;20499;-63
2022/03/28 07:04:20;;;;;;;19.13;16.63;;;;;;;;;;5111298;28;20422;-64
2022/03/28 07:06:45;;;;;;;19.73;17.55;;;;;;;;;;5105492;28;20476;-64
2022/03/28 07:09:11;;;;;;;19.55;17.05;;;;;;;;;;5109895;28;20042;-66
2022/03/28 07:11:36;;;;;;;19.55;17.52;;;;;;;;;;5100443;28;20032;-64
2022/03/28 07:14:02;;;;;;;20.35;16.33;;;;;;;;;;5113513;28;20020;-64
2022/03/28 07:16:27;;;;;;;18.42;16.48;;;;;;;;;;5114117;28;20506;-65
2022/03/28 07:18:52;;;;;;;18.98;16.90;;;;;;;;;;5109171;28;20016;-63
2022/03/28 07:21:17;;;;;;;19.55;16.65;;;;;;;;;;5112079;28;20011;-59
2022/03/28 07:23:43;;;;;;;18.77;16.23;;;;;;;;;;5098589;28;20032;-63
2022/03/28 07:26:09;;;;;;;22.48;17.15;;;;;;;;;;5096686;28;20103;-63
2022/03/28 07:28:38;;;;;;;21.52;17.60;;;;;;;;;;5111033;28;20536;-60
2022/03/28 07:31:05;;;;;;;20.70;16.77;;;;;;;;;;5113639;28;20406;-59
2022/03/28 07:33:30;;;;;;;20.45;17.33;;;;;;;;;;5113783;28;20028;-64
2022/03/28 07:35:55;;;;;;;19.23;17.17;;;;;;;;;;5114346;28;20035;-64
2022/03/28 07:38:20;;;;;;;20.27;17.85;;;;;;;;;;5114256;28;20030;-65
2022/03/28 07:40:46;;;;;;;21.55;17.60;;;;;;;;;;5110816;28;20061;-65
2022/03/28 07:43:12;;;;;;;21.48;17.92;;;;;;;;;;5104261;28;20028;-63
2022/03/28 07:45:37;;;;;;;20.00;17.90;;;;;;;;;;5106742;28;20027;-63
2022/03/28 07:48:03;;;;;;;19.17;17.27;;;;;;;;;;5106303;28;20511;-63
2022/03/28 07:50:29;;;;;;;21.02;18.92;;;;;;;;;;5094539;28;20070;-61
2022/03/28 07:52:55;;;;;;;20.35;18.25;;;;;;;;;;5097620;28;20032;-61
2022/03/28 07:55:20;;;;;;;21.23;17.95;;;;;;;;;;5101341;28;20031;-60
2022/03/28 07:57:45;;;;;;;19.92;17.92;;;;;;;;;;5111597;28;20052;-58
2022/03/28 08:00:13;;;;;;;19.73;17.73;;;;;;;;;;5110566;28;20107;-59
2022/03/28 08:02:39;;;;;;;21.05;18.45;;;;;;;;;;5108723;27;20023;-59
2022/03/28 08:05:05;;;;;;;19.52;17.63;;;;;;;;;;5106779;28;20362;-58
2022/03/28 08:07:31;;;;;;;20.50;17.65;;;;;;;;;;5094126;28;20035;-59
2022/03/28 08:09:56;;;;;;;19.20;17.05;;;;;;;;;;5097322;28;20032;-60
2022/03/28 08:12:21;;;;;;;19.55;17.55;;;;;;;;;;5106682;28;20042;-61
2022/03/28 08:14:48;;;;;;;18.70;16.90;;;;;;;;;;5113074;28;20028;-61
2022/03/28 08:17:13;;;;;;;18.35;16.55;;;;;;;;;;5114255;28;20027;-63
2022/03/28 08:19:38;;;;;;;20.17;17.27;;;;;;;;;;5113258;28;20032;-63
2022/03/28 08:22:03;;;;;;;18.35;16.63;;;;;;;;;;5111613;28;20028;-62
2022/03/28 08:24:28;;;;;;;18.52;16.55;;;;;;;;;;5111634;28;20023;-63
2022/03/28 08:26:54;;;;;;;17.30;15.70;;;;;;;;;;5104006;28;20072;-61
2022/03/28 08:29:19;;;;;;;18.95;17.10;;;;;;;;;;5113824;28;20062;-63
2022/03/28 08:31:44;;;;;;;17.77;15.95;;;;;;;;;;5111094;28;20103;-62
2022/03/28 08:34:10;;;;;;;17.50;15.82;;;;;;;;;;5112531;28;20057;-62
2022/03/28 08:36:36;;;;;;;18.00;16.30;;;;;;;;;;5113722;28;20032;-64
2022/03/28 08:39:02;;;;;;;16.90;15.20;;;;;;;;;;5105939;28;20035;-63
2022/03/28 08:41:27;;;;;;;15.13;13.70;;;;;;;;;;5113605;28;20450;-66
2022/03/28 08:43:53;;;;;;;16.88;15.32;;;;;;;;;;5113009;28;20024;-65
2022/03/28 08:46:18;;;;;;;16.17;14.50;;;;;;;;;;5112909;28;20068;-66
2022/03/28 08:48:43;;;;;;;15.90;14.20;;;;;;;;;;5112078;28;20131;-65
2022/03/28 08:51:09;;;;;;;14.38;13.00;;;;;;;;;;5102690;28;20527;-67
2022/03/28 08:53:35;;;;;;;15.43;13.82;;;;;;;;;;5094386;28;20035;-68
2022/03/28 08:56:00;;;;;;;15.13;13.50;;;;;;;;;;5107862;28;20036;-66
2022/03/28 08:58:26;;;;;;;13.65;12.20;;;;;;;;;;5111743;28;20399;-64
2022/03/28 09:00:51;;;;;;;14.40;13.00;;;;;;;;;;5113344;28;20031;-63
2022/03/28 09:03:16;;;;;;;15.85;14.35;;;;;;;;;;5113542;28;20026;-65
2022/03/28 09:05:47;;;;;;;15.13;13.60;;;;;;;;;;5097984;28;20024;-63
2022/03/28 09:08:12;;;;;;;15.15;13.75;;;;;;;;;;5094256;28;20036;-64
2022/03/28 09:10:37;;;;;;;14.82;13.43;;;;;;;;;;5112535;28;20050;-63
2022/03/28 09:13:10;;;;;;;15.50;14.05;;;;;;;;;;5112470;28;20024;-64
2022/03/28 09:15:42;;;;;;;15.85;14.23;;;;;;;;;;5102599;28;20051;-64
2022/03/28 09:18:08;;;;;;;13.27;11.90;;;;;;;;;;5107021;28;20035;-64
2022/03/28 09:20:35;;;;;;;13.50;12.15;;;;;;;;;;5100932;28;20019;-64
2022/03/28 09:23:21;;;;;;;14.05;12.75;;;;;;;;;;5107424;28;20011;-64
2022/03/28 09:25:46;;;;;;;;;;;;;;;;;;5096555;28;20016;-66
2022/03/28 09:28:11;;;;;;;10.80;9.68;;;;;;;;;;5109985;28;19923;-65
2022/03/28 09:30:38;;;;;;;10.90;9.85;;;;;;;;;;5105634;28;20036;-65
2022/03/28 09:33:03;;;;;;;9.63;8.68;;;;;;;;;;5111815;28;20024;-64
2022/03/28 09:35:28;;;;;;;9.70;8.80;;;;;;;;;;5111572;28;20058;-64
2022/03/28 09:37:58;;;;;;;9.02;8.10;;;;;;;;;;5111176;28;20024;-64
2022/03/28 09:40:23;;;;;;;10.85;9.68;;;;;;;;;;5106340;28;20055;-64
2022/03/28 09:42:49;;;;;;;10.90;9.80;;;;;;;;;;5098796;28;20050;-64
2022/03/28 09:45:25;;;;;;;10.43;9.13;;;;;;;;;;5110292;28;20027;-64
2022/03/28 09:48:06;;;;;;;12.57;8.93;;;;;;;;;;5095949;28;20047;-64
2022/03/28 09:50:37;;;;;;;9.38;8.48;;;;;;;;;;5093254;28;20073;-64
2022/03/28 09:53:21;;;;;;;10.45;9.07;;;;;;;;;;5091758;28;20043;-64
2022/03/28 09:55:48;;;;;;;12.48;9.63;;;;;;;;;;5093398;28;20028;-63
2022/03/28 09:58:32;;;;;;;11.75;8.90;;;;;;;;;;5108693;28;20541;-64
2022/03/28 10:00:58;;;;;;;9.70;8.73;;;;;;;;;;5106229;28;20055;-64
2022/03/28 10:03:24;;;;;;;11.38;10.18;;;;;;;;;;5109212;28;20108;-64
2022/03/28 10:05:50;;;;;;;12.20;10.98;;;;;;;;;;5109513;28;20539;-64
2022/03/28 10:08:15;;;;;;;10.23;8.77;;;;;;;;;;5111907;28;20065;-64
2022/03/28 10:10:41;;;;;;;10.73;9.30;;;;;;;;;;5107842;28;20105;-64
2022/03/28 10:13:06;;;;;;;9.50;8.60;;;;;;;;;;5108738;28;20081;-64
2022/03/28 10:15:31;;;;;;;8.60;7.40;;;;;;;;;;5096579;28;20027;-64
2022/03/28 10:17:57;;;;;;;8.68;7.63;;;;;;;;;;5093172;28;20032;-64
2022/03/28 10:20:22;;;;;;;9.35;8.07;;;;;;;;;;5109133;28;20027;-64
2022/03/28 10:22:48;;;;;;;8.65;7.15;;;;;;;;;;5112034;28;20498;-65
2022/03/28 10:25:19;;;;;;;9.77;8.07;;;;;;;;;;5111871;28;20026;-64
2022/03/28 10:27:44;;;;;;;8.07;7.03;;;;;;;;;;5105884;28;20094;-64
2022/03/28 10:30:22;;;;;;;7.35;6.30;;;;;;;;;;5103258;28;20846;-65
2022/03/28 10:33:05;;;;;;;8.43;7.53;;;;;;;;;;5090292;28;20032;-65
2022/03/28 10:35:31;;;;;;;9.20;8.30;;;;;;;;;;5102720;28;20015;-63
2022/03/28 10:38:12;;;;;;;8.50;7.70;;;;;;;;;;5111545;28;20393;-64
2022/03/28 10:40:40;;;;;;;9.48;8.57;;;;;;;;;;5110397;28;20287;-65
2022/03/28 10:43:11;;;;;;;8.73;7.85;;;;;;;;;;5094521;28;20115;-64
2022/03/28 10:45:39;;;;;;;10.68;7.95;;;;;;;;;;5112119;28;20039;-64
2022/03/28 10:48:05;;;;;;;8.40;7.35;;;;;;;;;;5107685;28;20535;-63
2022/03/28 10:50:34;;;;;;;10.93;7.90;;;;;;;;;;5101523;28;20407;-64
2022/03/28 10:53:03;;;;;;;8.15;7.30;;;;;;;;;;5092090;28;20444;-63
2022/03/28 10:55:33;;;;;;;7.28;6.57;;;;;;;;;;5091783;28;20055;-64
2022/03/28 10:58:11;;;;;;;7.38;6.68;;;;;;;;;;5107327;28;20057;-64
2022/03/28 11:00:37;;;;;;;6.13;5.53;;;;;;;;;;5104100;28;20464;-64
2022/03/28 11:03:02;;;;;;;7.73;6.93;;;;;;;;;;5099527;28;20035;-64
2022/03/28 11:05:28;;;;;;;6.88;6.28;;;;;;;;;;5103807;28;20295;-64
2022/03/28 11:08:01;;;;;;;13.40;5.93;;;;;;;;;;5107138;28;20015;-64
2022/03/28 11:10:26;;;;;;;7.53;6.38;;;;;;;;;;5100827;28;20034;-64
2022/03/28 11:13:11;;;;;;;7.70;6.97;;;;;;;;;;5105687;28;20398;-64
2022/03/28 11:15:37;;;;;;;6.85;6.22;;;;;;;;;;5110182;28;20020;-66
2022/03/28 11:18:03;;;;;;;8.18;7.28;;;;;;;;;;5109483;28;20019;-63
2022/03/28 11:20:45;;;;;;;7.97;7.28;;;;;;;;;;5107141;28;20387;-64
2022/03/28 11:23:11;;;;;;;8.48;7.68;;;;;;;;;;5092742;28;20099;-64
2022/03/28 11:25:44;;;;;;;7.47;6.78;;;;;;;;;;5110310;28;20035;-65
2022/03/28 11:28:11;;;;;;;7.57;6.95;;;;;;;;;;5112881;28;20098;-65
2022/03/28 11:30:39;;;;;;;7.68;6.88;;;;;;;;;;5103276;28;20008;-64
2022/03/28 11:33:08;;;;;;;6.95;6.35;;;;;;;;;;5096851;28;20032;-64
2022/03/28 11:35:34;;;;;;;8.18;7.47;;;;;;;;;;5113434;28;20068;-64
2022/03/28 11:38:01;;;;;;;7.50;6.80;;;;;;;;;;5096103;28;20051;-65
2022/03/28 11:40:35;;;;;;;7.85;7.20;;;;;;;;;;5103793;28;20031;-64
2022/03/28 11:43:00;;;;;;;;;;;;;;;;;;5096751;28;20051;-64
2022/03/28 11:45:26;;;;;;;7.30;6.70;;;;;;;;;;5111070;28;19954;-65
2022/03/28 11:47:52;;;;;;;7.95;7.15;;;;;;;;;;5102597;28;20115;-65
2022/03/28 11:50:17;;;;;;;7.93;7.22;;;;;;;;;;5097240;28;20012;-65
2022/03/28 11:52:47;;;;;;;7.28;6.50;;;;;;;;;;5093078;28;20031;-65
2022/03/28 11:55:24;;;;;;;7.75;7.03;;;;;;;;;;5103676;28;20027;-64
2022/03/28 12:00:35;;;;;;;7.18;6.45;;;;;;;;;;5108231;28;20393;-65
2022/03/28 12:03:00;;;;;;;6.40;5.90;;;;;;;;;;5100267;28;20020;-65
2022/03/28 12:05:32;;;;;;;7.13;6.50;;;;;;;;;;5108533;28;20027;-65
2022/03/28 12:07:59;;;;;;;6.50;5.90;;;;;;;;;;5111203;28;20421;-66
2022/03/28 12:10:25;;;;;;;6.10;5.60;;;;;;;;;;5095119;28;20019;-65
2022/03/28 12:12:50;;;;;;;5.33;4.87;;;;;;;;;;5104412;28;20008;-66
2022/03/28 12:15:29;;;;;;;5.50;4.97;;;;;;;;;;5102580;28;20296;-65
2022/03/28 12:17:57;;;;;;;5.55;4.47;;;;;;;;;;5100551;28;20276;-66
2022/03/28 12:20:23;;;;;;;4.45;4.05;;;;;;;;;;5111015;28;20023;-65
2022/03/28 12:22:49;;;;;;;4.45;4.15;;;;;;;;;;5112833;28;20028;-65
2022/03/28 12:25:23;;;;;;;4.30;3.60;;;;;;;;;;5104158;27;20027;-65
2022/03/28 12:27:55;;;;;;;3.55;3.25;;;;;;;;;;5109119;28;20480;-65
2022/03/28 12:30:28;;;;;;;3.78;3.40;;;;;;;;;;5104887;28;20050;-64
2022/03/28 12:32:53;;;;;;;4.72;3.47;;;;;;;;;;5095667;28;20388;-64
2022/03/28 12:35:21;;;;;;;3.60;3.30;;;;;;;;;;5112986;28;20028;-64
2022/03/28 12:37:55;;;;;;;3.88;3.50;;;;;;;;;;5112871;28;20265;-65
2022/03/28 12:40:27;;;;;;;4.25;2.95;;;;;;;;;;5102832;28;20034;-65
2022/03/28 12:42:53;;;;;;;3.53;2.83;;;;;;;;;;5095722;28;20008;-65
2022/03/28 12:45:18;;;;;;;3.30;3.00;;;;;;;;;;5103561;28;20430;-64
2022/03/28 12:47:54;;;;;;;3.80;2.93;;;;;;;;;;5101435;28;20031;-65
2022/03/28 12:50:19;;;;;;;3.72;3.10;;;;;;;;;;5092747;28;20337;-65
2022/03/28 12:52:44;;;;;;;3.47;3.27;;;;;;;;;;5111227;28;20114;-64
2022/03/28 12:55:09;;;;;;;4.00;3.60;;;;;;;;;;5111936;28;20266;-64
2022/03/28 12:57:37;;;;;;;3.70;3.40;;;;;;;;;;5106212;28;20306;-64
2022/03/28 13:00:02;;;;;;;3.78;3.40;;;;;;;;;;5102897;28;20367;-65
2022/03/28 13:02:27;;;;;;;3.95;3.60;;;;;;;;;;5109235;28;20353;-65
2022/03/28 13:04:55;;;;;;;3.80;3.43;;;;;;;;;;5108814;28;20020;-65
2022/03/28 13:07:22;;;;;;;4.00;3.70;;;;;;;;;;5093231;28;20334;-65
2022/03/28 13:09:57;;;;;;;3.63;3.33;;;;;;;;;;5108963;28;20027;-64
2022/03/28 13:12:22;;;;;;;;;;;;;;;;;;5111909;28;20030;-64
2022/03/28 13:14:48;;;;;;;;;;;;;;;;;;5112701;28;19907;-64
2022/03/28 13:17:14;;;;;;;5.82;3.88;;;;;;;;;;5113137;28;20018;-65
2022/03/28 13:19:40;;;;;;;4.07;3.40;;;;;;;;;;5108300;28;20024;-64
2022/03/28 13:22:06;;;;;;;4.07;3.70;;;;;;;;;;5099188;28;20020;-64
2022/03/28 13:24:32;;;;;;;3.83;3.35;;;;;;;;;;5099864;28;20028;-64
2022/03/28 13:29:51;;;;;;;4.13;3.70;;;;;;;;;;5110606;28;20172;-64
2022/03/28 13:32:17;;;;;;;6.10;4.30;;;;;;;;;;5103848;28;20107;-64
2022/03/28 13:34:42;;;;;;;4.63;4.10;;;;;;;;;;5110320;27;20468;-64
2022/03/28 13:37:07;;;;;;;4.55;4.03;;;;;;;;;;5111748;28;20054;-64
2022/03/28 13:39:32;;;;;;;4.63;3.60;;;;;;;;;;5106462;28;20032;-64
2022/03/28 13:41:58;;;;;;;4.50;4.10;;;;;;;;;;5112654;28;20311;-69
2022/03/28 13:44:24;;;;;;;4.45;3.50;;;;;;;;;;5110605;28;20069;-67
2022/03/28 13:46:49;;;;;;;4.30;3.80;;;;;;;;;;5103326;28;20024;-66
2022/03/28 13:49:14;;;;;;;5.05;3.50;;;;;;;;;;5096715;28;20139;-66
2022/03/28 13:51:40;;;;;;;4.32;3.45;;;;;;;;;;5092298;28;20027;-66
2022/03/28 13:54:05;;;;;;;4.45;3.83;;;;;;;;;;5090100;28;20036;-66
2022/03/28 13:56:31;;;;;;;4.80;4.40;;;;;;;;;;5096624;28;20034;-66
2022/03/28 13:58:56;;;;;;;4.88;4.38;;;;;;;;;;5109889;28;20294;-66
2022/03/28 14:01:27;;;;;;;4.88;4.47;;;;;;;;;;5093601;28;20055;-66
2022/03/28 14:03:52;;;;;;;4.45;3.90;;;;;;;;;;5111025;28;20045;-66
2022/03/28 14:06:19;;;;;;;5.15;4.13;;;;;;;;;;5102996;28;20118;-64
2022/03/28 14:08:44;;;;;;;4.63;4.03;;;;;;;;;;5097304;28;20116;-69
2022/03/28 14:11:13;;;;;;;6.18;4.65;;;;;;;;;;5104168;28;20111;-66
2022/03/28 14:13:38;;;;;;;4.90;4.40;;;;;;;;;;5108432;28;20040;-67
2022/03/28 14:16:04;;;;;;;6.13;5.00;;;;;;;;;;5108198;28;20106;-67
2022/03/28 14:18:29;;;;;;;5.45;4.95;;;;;;;;;;5096246;28;20146;-67
2022/03/28 14:20:55;;;;;;;5.13;4.63;;;;;;;;;;5106987;28;20044;-66
2022/03/28 14:23:20;;;;;;;5.70;4.95;;;;;;;;;;5108456;28;20127;-66
2022/03/28 14:25:46;;;;;;;6.03;5.43;;;;;;;;;;5105753;28;20116;-66
2022/03/28 14:28:11;;;;;;;5.68;4.85;;;;;;;;;;5108891;28;20106;-65
2022/03/28 14:30:36;;;;;;;5.75;5.18;;;;;;;;;;5111256;28;20030;-66